createdAt,value
2023-04-07T00:01:53.021Z,22.20
2023-04-07T00:04:19.785Z,21.05
2023-04-07T00:06:46.459Z,23.40
2023-04-07T00:09:12.913Z,19.50
2023-04-07T00:11:39.374Z,22.98
2023-04-07T00:14:05.919Z,21.70
2023-04-07T00:16:32.391Z,21.42
2023-04-07T00:18:58.875Z,20.88
2023-04-07T00:21:27.075Z,22.17
2023-04-07T00:23:53.760Z,22.27
2023-04-07T00:26:20.390Z,21.67
2023-04-07T00:28:46.881Z,22.20
2023-04-07T00:31:13.735Z,21.30
2023-04-07T00:33:40.633Z,25.48
2023-04-07T00:36:07.216Z,20.42
2023-04-07T00:38:33.736Z,27.38
2023-04-07T00:41:01.361Z,25.75
2023-04-07T00:43:27.836Z,23.27
2023-04-07T00:45:54.814Z,22.17
2023-04-07T00:48:21.668Z,24.90
2023-04-07T00:50:48.178Z,21.30
2023-04-07T00:53:15.230Z,24.95
2023-04-07T00:55:41.888Z,25.73
2023-04-07T00:58:08.521Z,23.50
2023-04-07T01:00:39.787Z,24.65
2023-04-07T01:03:10.483Z,23.65
2023-04-07T01:05:52.917Z,24.40
2023-04-07T01:08:38.740Z,26.98
2023-04-07T01:11:17.839Z,28.58
2023-04-07T01:13:52.310Z,31.90
2023-04-07T01:16:32.635Z,28.85
2023-04-07T01:19:39.809Z,32.72
2023-04-07T01:22:12.950Z,25.77
2023-04-07T01:24:58.978Z,28.35
2023-04-07T01:27:51.532Z,30.45
2023-04-07T01:30:18.232Z,27.85
2023-04-07T01:32:47.281Z,30.27
2023-04-07T01:35:14.068Z,30.63
2023-04-07T01:37:40.960Z,30.92
2023-04-07T01:40:07.995Z,30.30
2023-04-07T01:42:34.754Z,34.60
2023-04-07T01:45:02.017Z,32.78
2023-04-07T01:47:30.969Z,35.67
2023-04-07T01:49:58.715Z,33.35
2023-04-07T01:52:27.041Z,32.00
2023-04-07T01:54:54.462Z,32.57
2023-04-07T01:57:20.911Z,32.92
2023-04-07T01:59:51.482Z,32.50
2023-04-07T02:02:20.816Z,34.00
2023-04-07T02:04:57.486Z,32.83
2023-04-07T02:07:46.111Z,30.57
2023-04-07T02:10:15.829Z,30.43
2023-04-07T02:12:42.612Z,28.80
2023-04-07T02:15:14.473Z,29.50
2023-04-07T02:17:45.622Z,32.80
2023-04-07T02:20:12.844Z,30.27
2023-04-07T02:22:39.704Z,31.17
2023-04-07T02:25:28.436Z,31.00
2023-04-07T02:27:56.363Z,27.97
2023-04-07T02:30:23.769Z,34.22
2023-04-07T02:32:51.087Z,29.50
2023-04-07T02:35:17.880Z,29.00
2023-04-07T02:37:45.092Z,27.53
2023-04-07T02:40:12.226Z,26.55
2023-04-07T02:42:38.756Z,26.57
2023-04-07T02:45:06.865Z,31.87
2023-04-07T02:47:34.472Z,26.80
2023-04-07T02:50:01.018Z,24.43
2023-04-07T02:52:27.466Z,25.33
2023-04-07T02:54:54.093Z,29.97
2023-04-07T02:57:24.547Z,28.70
2023-04-07T02:59:56.073Z,28.17
2023-04-07T03:02:24.882Z,26.80
2023-04-07T03:04:53.037Z,28.50
2023-04-07T03:07:24.054Z,29.07
2023-04-07T03:09:54.056Z,28.35
2023-04-07T03:12:20.718Z,29.17
2023-04-07T03:14:47.789Z,30.63
2023-04-07T03:17:14.739Z,24.80
2023-04-07T03:19:42.417Z,28.10
2023-04-07T03:22:08.907Z,27.73
2023-04-07T03:24:41.446Z,31.27
2023-04-07T03:27:08.073Z,31.90
2023-04-07T03:29:40.380Z,25.03
2023-04-07T03:32:10.431Z,29.90
2023-04-07T03:34:37.492Z,28.83
2023-04-07T03:37:04.115Z,27.30
2023-04-07T03:39:36.585Z,23.60
2023-04-07T03:42:08.424Z,27.90
2023-04-07T03:44:37.133Z,27.20
2023-04-07T03:47:03.770Z,26.40
2023-04-07T03:49:31.304Z,25.87
2023-04-07T03:52:00.826Z,28.40
2023-04-07T03:54:27.570Z,27.23
2023-04-07T03:56:54.013Z,29.83
2023-04-07T03:59:23.298Z,28.17
2023-04-07T04:01:56.037Z,26.90
2023-04-07T04:04:24.468Z,30.40
2023-04-07T04:06:51.671Z,29.40
2023-04-07T04:09:35.117Z,26.10
2023-04-07T04:12:01.610Z,29.77
2023-04-07T04:14:30.333Z,28.73
2023-04-07T04:17:00.608Z,26.93
2023-04-07T04:19:39.173Z,26.47
2023-04-07T04:22:14.113Z,28.47
2023-04-07T04:24:48.843Z,29.87
2023-04-07T04:27:15.491Z,26.97
2023-04-07T04:29:43.722Z,30.93
2023-04-07T04:32:12.713Z,26.90
2023-04-07T04:34:42.187Z,30.53
2023-04-07T04:37:09.934Z,25.97
2023-04-07T04:39:36.856Z,26.73
2023-04-07T04:42:04.132Z,27.73
2023-04-07T04:44:34.864Z,25.53
2023-04-07T04:47:03.556Z,25.07
2023-04-07T04:49:31.543Z,26.57
2023-04-07T04:52:01.324Z,25.97
2023-04-07T04:54:31.220Z,23.23
2023-04-07T04:56:57.739Z,23.20
2023-04-07T04:59:24.407Z,23.40
2023-04-07T05:02:01.123Z,24.67
2023-04-07T05:04:28.389Z,25.57
2023-04-07T05:07:02.024Z,24.83
2023-04-07T05:09:31.200Z,21.07
2023-04-07T05:11:58.085Z,21.08
2023-04-07T05:14:25.758Z,23.70
2023-04-07T05:16:58.527Z,25.40
2023-04-07T05:19:29.683Z,24.63
2023-04-07T05:22:01.856Z,23.85
2023-04-07T05:24:30.816Z,21.30
2023-04-07T05:27:01.792Z,21.02
2023-04-07T05:29:29.438Z,22.58
2023-04-07T05:31:56.029Z,22.42
2023-04-07T05:34:23.474Z,22.58
2023-04-07T05:36:54.074Z,21.13
2023-04-07T05:39:21.339Z,19.20
2023-04-07T05:41:50.526Z,21.20
2023-04-07T05:44:17.436Z,17.70
2023-04-07T05:46:44.827Z,21.17
2023-04-07T05:49:19.502Z,19.00
2023-04-07T05:51:50.024Z,17.88
2023-04-07T05:54:16.672Z,17.98
2023-04-07T05:56:43.706Z,19.25
2023-04-07T05:59:10.625Z,17.15
2023-04-07T06:01:37.193Z,19.73
2023-04-07T06:04:04.319Z,18.23
2023-04-07T06:06:31.392Z,15.55
2023-04-07T06:08:57.952Z,16.23
2023-04-07T06:11:26.311Z,20.02
2023-04-07T06:13:53.000Z,18.45
2023-04-07T06:16:19.820Z,16.25
2023-04-07T06:18:46.557Z,15.43
2023-04-07T06:21:13.138Z,13.75
2023-04-07T06:23:39.630Z,15.18
2023-04-07T06:26:06.657Z,17.17
2023-04-07T06:28:33.181Z,20.67
2023-04-07T06:31:00.136Z,14.80
2023-04-07T06:33:28.443Z,15.00
2023-04-07T06:35:56.493Z,15.02
2023-04-07T06:38:23.182Z,15.35
2023-04-07T06:40:49.704Z,14.70
2023-04-07T06:43:16.200Z,16.42
2023-04-07T06:45:49.914Z,15.15
2023-04-07T06:48:16.539Z,15.93
2023-04-07T06:50:46.860Z,19.35
2023-04-07T06:53:14.362Z,14.60
2023-04-07T06:55:41.072Z,15.77
2023-04-07T06:58:07.655Z,16.40
2023-04-07T07:00:34.262Z,19.55
2023-04-07T07:03:01.059Z,17.55
2023-04-07T07:05:27.745Z,17.48
2023-04-07T07:07:54.229Z,22.10
2023-04-07T07:10:22.527Z,20.17
2023-04-07T07:12:49.884Z,23.35
2023-04-07T07:15:16.401Z,16.42
2023-04-07T07:17:42.941Z,14.85
2023-04-07T07:20:10.179Z,15.32
2023-04-07T07:22:36.945Z,14.55
2023-04-07T07:25:03.682Z,13.32
2023-04-07T07:27:30.485Z,15.25
2023-04-07T07:29:57.580Z,14.52
2023-04-07T07:32:24.136Z,14.30
2023-04-07T07:34:50.836Z,13.93
2023-04-07T07:37:17.451Z,12.95
2023-04-07T07:39:43.940Z,15.00
2023-04-07T07:42:10.672Z,15.27
2023-04-07T07:44:37.161Z,17.90
2023-04-07T07:47:03.601Z,15.93
2023-04-07T07:49:30.584Z,14.20
2023-04-07T07:51:57.497Z,16.55
2023-04-07T07:54:23.958Z,14.95
2023-04-07T07:56:50.432Z,13.25
2023-04-07T07:59:17.836Z,13.50
2023-04-07T08:01:44.786Z,13.70
2023-04-07T08:04:11.425Z,12.98
2023-04-07T08:06:38.102Z,13.90
2023-04-07T08:09:06.340Z,12.68
2023-04-07T08:11:32.952Z,14.77
2023-04-07T08:13:59.453Z,11.75
2023-04-07T08:16:26.869Z,13.40
2023-04-07T08:18:53.501Z,16.27
2023-04-07T08:21:21.016Z,13.43
2023-04-07T08:23:47.907Z,12.10
2023-04-07T08:26:14.661Z,12.15
2023-04-07T08:28:41.179Z,11.30
2023-04-07T08:31:07.774Z,15.02
2023-04-07T08:33:34.337Z,12.20
2023-04-07T08:36:01.202Z,13.38
2023-04-07T08:38:27.978Z,15.77
2023-04-07T08:40:59.579Z,9.93
2023-04-07T08:43:26.857Z,12.05
2023-04-07T08:45:57.209Z,10.23
2023-04-07T08:48:27.141Z,12.98
2023-04-07T08:50:54.142Z,11.40
2023-04-07T08:53:29.466Z,11.05
2023-04-07T08:55:56.401Z,11.85
2023-04-07T08:58:23.576Z,11.30
2023-04-07T09:00:50.876Z,9.55
2023-04-07T09:03:18.346Z,9.30
2023-04-07T09:05:46.437Z,9.65
2023-04-07T09:08:13.023Z,8.80
2023-04-07T09:10:39.540Z,11.02
2023-04-07T09:13:06.353Z,11.55
2023-04-07T09:15:32.823Z,11.43
2023-04-07T09:17:59.476Z,8.38
2023-04-07T09:20:25.998Z,9.45
2023-04-07T09:22:52.530Z,8.95
2023-04-07T09:25:27.041Z,10.90
2023-04-07T09:28:00.886Z,8.07
2023-04-07T09:30:28.558Z,8.38
2023-04-07T09:32:55.436Z,8.73
2023-04-07T09:35:23.848Z,8.88
2023-04-07T09:38:09.450Z,11.70
2023-04-07T09:40:37.410Z,7.97
2023-04-07T09:43:05.183Z,8.25
2023-04-07T09:45:35.663Z,7.82
2023-04-07T09:48:19.210Z,10.75
2023-04-07T09:50:49.522Z,8.05
2023-04-07T09:53:17.018Z,7.25
2023-04-07T09:55:43.855Z,8.43
2023-04-07T09:58:13.561Z,7.20
2023-04-07T10:00:41.433Z,7.55
2023-04-07T10:03:08.872Z,6.70
2023-04-07T10:05:36.700Z,6.35
2023-04-07T10:08:04.065Z,7.13
2023-04-07T10:10:31.769Z,7.60
2023-04-07T10:12:59.078Z,6.93
2023-04-07T10:15:25.710Z,8.57
2023-04-07T10:17:53.847Z,7.85
2023-04-07T10:20:21.330Z,8.38
2023-04-07T10:22:50.210Z,8.98
2023-04-07T10:25:18.824Z,10.43
2023-04-07T10:27:51.627Z,9.13
2023-04-07T10:30:22.501Z,9.50
2023-04-07T10:32:50.319Z,7.45
2023-04-07T10:35:17.242Z,9.48
2023-04-07T10:38:14.038Z,9.30
2023-04-07T10:40:41.606Z,7.47
2023-04-07T10:43:11.832Z,7.50
2023-04-07T10:45:47.089Z,6.85
2023-04-07T10:48:14.754Z,6.78
2023-04-07T10:50:42.527Z,7.80
2023-04-07T10:53:12.299Z,9.35
2023-04-07T10:55:45.283Z,10.40
2023-04-07T10:58:32.079Z,6.22
2023-04-07T11:01:07.866Z,7.95
2023-04-07T11:03:36.275Z,8.70
2023-04-07T11:06:06.393Z,6.90
2023-04-07T11:08:41.862Z,8.02
2023-04-07T11:11:09.768Z,7.25
2023-04-07T11:13:42.685Z,11.85
2023-04-07T11:16:09.502Z,7.30
2023-04-07T11:18:40.123Z,9.13
2023-04-07T11:21:08.085Z,9.13
2023-04-07T11:23:39.624Z,7.60
2023-04-07T11:26:06.173Z,8.82
2023-04-07T11:28:32.908Z,8.60
2023-04-07T11:31:00.177Z,8.27
2023-04-07T11:33:28.251Z,6.97
2023-04-07T11:35:57.002Z,8.07
2023-04-07T11:38:30.577Z,7.13
2023-04-07T11:40:57.466Z,7.40
2023-04-07T11:43:25.904Z,9.70
2023-04-07T11:46:14.557Z,7.65
2023-04-07T11:48:42.441Z,8.32
2023-04-07T11:51:17.158Z,7.63
2023-04-07T11:53:43.640Z,7.40
2023-04-07T11:56:16.612Z,9.15
2023-04-07T11:58:54.282Z,8.15
2023-04-07T12:01:21.410Z,8.57
2023-04-07T12:03:59.378Z,7.93
2023-04-07T12:06:41.944Z,11.05
2023-04-07T12:09:29.400Z,10.23
2023-04-07T12:11:57.450Z,8.27
2023-04-07T12:14:24.892Z,11.02
2023-04-07T12:16:51.437Z,9.95
2023-04-07T12:19:18.318Z,8.50
2023-04-07T12:21:44.819Z,11.93
2023-04-07T12:24:11.356Z,10.90
2023-04-07T12:26:38.589Z,12.98
2023-04-07T12:29:05.450Z,8.77
2023-04-07T12:31:32.851Z,9.13
2023-04-07T12:33:59.528Z,8.85
2023-04-07T12:36:27.600Z,9.57
2023-04-07T12:38:54.641Z,9.35
2023-04-07T12:41:21.157Z,9.10
2023-04-07T12:43:47.659Z,9.35
2023-04-07T12:46:14.364Z,8.98
2023-04-07T12:48:41.262Z,10.40
2023-04-07T12:51:07.857Z,8.75
2023-04-07T12:53:34.300Z,8.65
2023-04-07T12:56:00.800Z,9.30
2023-04-07T12:58:27.349Z,9.15
2023-04-07T13:00:53.889Z,8.15
2023-04-07T13:03:20.670Z,10.27
2023-04-07T13:05:47.264Z,8.80
2023-04-07T13:08:13.693Z,8.50
2023-04-07T13:10:40.140Z,8.68
2023-04-07T13:13:06.577Z,8.15
2023-04-07T13:15:33.219Z,8.93
2023-04-07T13:17:59.726Z,8.70
2023-04-07T13:20:28.123Z,8.10
2023-04-07T13:23:07.041Z,8.85
2023-04-07T13:25:35.973Z,8.85
2023-04-07T13:28:02.412Z,10.95
2023-04-07T13:30:28.933Z,8.15
2023-04-07T13:32:55.681Z,6.88
2023-04-07T13:35:22.273Z,10.13
2023-04-07T13:37:48.764Z,7.00
2023-04-07T13:40:15.386Z,11.88
2023-04-07T13:42:43.319Z,7.50
2023-04-07T13:45:09.830Z,6.60
2023-04-07T13:47:36.445Z,5.88
2023-04-07T13:50:04.070Z,6.88
2023-04-07T13:52:32.818Z,8.02
2023-04-07T13:54:59.369Z,7.00
2023-04-07T13:57:25.916Z,9.05
2023-04-07T13:59:52.506Z,6.85
2023-04-07T14:02:20.084Z,6.50
2023-04-07T14:04:47.152Z,7.25
2023-04-07T14:07:13.743Z,10.70
2023-04-07T14:09:40.452Z,6.82
2023-04-07T14:12:06.990Z,8.07
2023-04-07T14:14:33.556Z,9.05
2023-04-07T14:17:00.190Z,8.50
2023-04-07T14:19:26.709Z,7.78
2023-04-07T14:21:53.324Z,8.77
2023-04-07T14:24:19.795Z,8.25
2023-04-07T14:26:46.376Z,7.43
2023-04-07T14:29:13.292Z,7.07
2023-04-07T14:31:40.579Z,7.30
2023-04-07T14:34:10.002Z,8.02
2023-04-07T14:36:36.473Z,9.30
2023-04-07T14:39:03.758Z,6.65
2023-04-07T14:41:30.253Z,6.15
2023-04-07T14:43:56.777Z,7.95
2023-04-07T14:46:23.976Z,8.68
2023-04-07T14:48:53.946Z,8.82
2023-04-07T14:51:21.363Z,6.93
2023-04-07T14:53:53.293Z,8.75
2023-04-07T14:56:21.257Z,7.57
2023-04-07T14:58:47.689Z,7.63
2023-04-07T15:01:14.170Z,7.85
2023-04-07T15:03:40.756Z,6.32
2023-04-07T15:06:11.522Z,6.57
2023-04-07T15:08:38.599Z,7.88
2023-04-07T15:11:08.434Z,8.35
2023-04-07T15:13:35.678Z,7.72
2023-04-07T15:16:12.175Z,5.85
2023-04-07T15:18:40.869Z,6.95
2023-04-07T15:21:11.686Z,7.20
2023-04-07T15:23:38.724Z,11.25
2023-04-07T15:26:05.993Z,8.18
2023-04-07T15:28:32.490Z,6.55
2023-04-07T15:30:59.449Z,6.45
2023-04-07T15:33:25.926Z,6.70
2023-04-07T15:35:52.543Z,6.70
2023-04-07T15:38:19.246Z,6.95
2023-04-07T15:40:46.062Z,7.30
2023-04-07T15:43:12.648Z,8.50
2023-04-07T15:45:42.964Z,8.10
2023-04-07T15:48:10.314Z,11.32
2023-04-07T15:50:36.836Z,8.13
2023-04-07T15:53:06.686Z,7.47
2023-04-07T15:55:33.757Z,8.05
2023-04-07T15:58:01.029Z,11.13
2023-04-07T16:00:28.455Z,6.75
2023-04-07T16:02:55.477Z,10.18
2023-04-07T16:05:22.047Z,9.50
2023-04-07T16:07:48.504Z,12.85
2023-04-07T16:10:15.309Z,9.00
2023-04-07T16:12:41.800Z,8.77
2023-04-07T16:15:11.008Z,9.80
2023-04-07T16:17:40.397Z,8.30
2023-04-07T16:20:17.035Z,8.27
2023-04-07T16:22:46.336Z,10.43
2023-04-07T16:25:12.956Z,10.43
2023-04-07T16:27:39.509Z,11.00
2023-04-07T16:30:06.506Z,9.57
2023-04-07T16:32:33.639Z,11.07
2023-04-07T16:35:00.133Z,10.38
2023-04-07T16:37:27.092Z,9.43
2023-04-07T16:39:57.434Z,11.18
2023-04-07T16:42:30.032Z,10.93
2023-04-07T16:45:01.249Z,8.75
2023-04-07T16:47:28.354Z,9.52
2023-04-07T16:49:54.856Z,12.60
2023-04-07T16:52:22.057Z,11.07
2023-04-07T16:54:48.548Z,11.10
2023-04-07T16:57:15.153Z,10.70
2023-04-07T16:59:41.807Z,11.27
2023-04-07T17:02:13.159Z,15.25
2023-04-07T17:04:41.134Z,10.07
2023-04-07T17:07:07.837Z,10.07
2023-04-07T17:09:34.759Z,13.45
2023-04-07T17:12:02.016Z,10.32
2023-04-07T17:14:29.288Z,9.68
2023-04-07T17:16:56.241Z,9.27
2023-04-07T17:19:22.857Z,11.68
2023-04-07T17:21:49.407Z,9.25
2023-04-07T17:24:16.775Z,8.63
2023-04-07T17:26:44.289Z,7.57
2023-04-07T17:29:10.771Z,8.07
2023-04-07T17:31:37.293Z,9.10
2023-04-07T17:34:03.875Z,9.13
2023-04-07T17:36:33.794Z,7.18
2023-04-07T17:39:01.340Z,9.75
2023-04-07T17:41:28.400Z,10.50
2023-04-07T17:43:54.967Z,8.20
2023-04-07T17:46:22.693Z,10.13
2023-04-07T17:48:50.720Z,8.13
2023-04-07T17:51:17.383Z,8.75
2023-04-07T17:53:44.013Z,8.52
2023-04-07T17:56:10.559Z,9.13
2023-04-07T17:58:37.108Z,8.20
2023-04-07T18:01:04.246Z,6.78
2023-04-07T18:03:31.175Z,9.40
2023-04-07T18:05:57.780Z,6.88
2023-04-07T18:08:24.969Z,9.35
2023-04-07T18:10:52.207Z,8.43
2023-04-07T18:13:18.769Z,7.68
2023-04-07T18:15:45.363Z,10.15
2023-04-07T18:18:12.174Z,8.98
2023-04-07T18:20:38.739Z,7.75
2023-04-07T18:23:05.659Z,7.78
2023-04-07T18:25:32.432Z,7.75
2023-04-07T18:27:59.005Z,7.10
2023-04-07T18:30:25.519Z,7.30
2023-04-07T18:32:52.076Z,5.88
2023-04-07T18:35:18.664Z,6.63
2023-04-07T18:37:45.664Z,6.60
2023-04-07T18:40:12.413Z,5.18
2023-04-07T18:42:38.961Z,5.30
2023-04-07T18:45:06.257Z,5.15
2023-04-07T18:47:32.876Z,5.93
2023-04-07T18:49:59.370Z,8.18
2023-04-07T18:52:26.437Z,9.65
2023-04-07T18:54:53.143Z,6.53
2023-04-07T18:57:19.649Z,5.90
2023-04-07T18:59:46.140Z,5.78
2023-04-07T19:02:12.822Z,5.13
2023-04-07T19:04:39.642Z,7.38
2023-04-07T19:07:06.147Z,17.27
2023-04-07T19:09:33.230Z,5.85
2023-04-07T19:11:59.732Z,5.82
2023-04-07T19:14:26.186Z,5.03
2023-04-07T19:16:52.824Z,5.88
2023-04-07T19:19:19.428Z,10.70
2023-04-07T19:21:45.923Z,8.63
2023-04-07T19:24:12.371Z,7.07
2023-04-07T19:26:39.035Z,6.97
2023-04-07T19:29:05.661Z,5.80
2023-04-07T19:31:32.261Z,6.05
2023-04-07T19:33:58.844Z,6.25
2023-04-07T19:36:26.420Z,5.65
2023-04-07T19:38:52.941Z,7.10
2023-04-07T19:41:19.453Z,6.85
2023-04-07T19:43:45.966Z,5.45
2023-04-07T19:46:12.538Z,5.28
2023-04-07T19:48:40.006Z,4.93
2023-04-07T19:51:07.524Z,10.45
2023-04-07T19:53:34.158Z,6.95
2023-04-07T19:56:01.554Z,7.05
2023-04-07T19:58:28.018Z,8.07
2023-04-07T20:00:55.051Z,5.72
2023-04-07T20:03:22.058Z,7.25
2023-04-07T20:05:49.524Z,6.10
2023-04-07T20:08:16.432Z,6.60
2023-04-07T20:10:42.980Z,5.63
2023-04-07T20:13:09.639Z,7.40
2023-04-07T20:15:36.651Z,7.32
2023-04-07T20:18:03.767Z,6.60
2023-04-07T20:20:30.290Z,6.05
2023-04-07T20:22:56.815Z,5.88
2023-04-07T20:25:23.382Z,6.22
2023-04-07T20:27:50.333Z,6.90
2023-04-07T20:30:16.870Z,5.80
2023-04-07T20:32:43.848Z,6.07
2023-04-07T20:35:11.927Z,5.97
2023-04-07T20:37:38.608Z,6.07
2023-04-07T20:40:06.120Z,7.15
2023-04-07T20:42:32.642Z,6.63
2023-04-07T20:45:03.675Z,6.00
2023-04-07T20:47:31.313Z,5.32
2023-04-07T20:49:58.752Z,5.80
2023-04-07T20:52:27.023Z,6.80
2023-04-07T20:54:53.605Z,6.07
2023-04-07T20:57:20.071Z,6.60
2023-04-07T20:59:46.542Z,6.65
2023-04-07T21:02:13.217Z,6.93
2023-04-07T21:04:39.964Z,6.28
2023-04-07T21:07:06.489Z,5.25
2023-04-07T21:09:33.008Z,6.22
2023-04-07T21:12:01.925Z,6.47
2023-04-07T21:14:28.488Z,5.40
2023-04-07T21:16:54.952Z,6.13
2023-04-07T21:19:22.228Z,4.88
2023-04-07T21:21:48.709Z,5.10
2023-04-07T21:24:15.196Z,4.88
2023-04-07T21:26:41.669Z,5.03
2023-04-07T21:29:08.136Z,5.30
2023-04-07T21:31:34.792Z,5.63
2023-04-07T21:34:01.485Z,6.25
2023-04-07T21:36:27.915Z,5.85
2023-04-07T21:38:54.412Z,6.15
2023-04-07T21:41:21.313Z,5.88
2023-04-07T21:43:47.860Z,5.65
2023-04-07T21:46:16.338Z,6.78
2023-04-07T21:48:42.876Z,6.53
2023-04-07T21:51:09.422Z,6.55
2023-04-07T21:53:36.168Z,7.20
2023-04-07T21:56:02.900Z,7.22
2023-04-07T21:58:29.408Z,7.85
2023-04-07T22:00:55.903Z,7.50
2023-04-07T22:03:22.891Z,7.25
2023-04-07T22:05:49.642Z,7.70
2023-04-07T22:08:16.653Z,6.85
2023-04-07T22:10:43.199Z,7.13
2023-04-07T22:13:09.739Z,6.70
2023-04-07T22:15:36.243Z,6.30
2023-04-07T22:18:03.546Z,6.72
2023-04-07T22:20:30.054Z,6.30
2023-04-07T22:22:57.441Z,5.82
2023-04-07T22:25:25.028Z,6.03
2023-04-07T22:27:56.780Z,6.75
2023-04-07T22:30:24.504Z,7.10
2023-04-07T22:32:51.742Z,6.68
2023-04-07T22:35:18.250Z,7.03
2023-04-07T22:37:44.822Z,7.80
2023-04-07T22:40:11.454Z,7.65
2023-04-07T22:42:38.182Z,7.90
2023-04-07T22:45:05.119Z,7.40
2023-04-07T22:47:31.656Z,7.03
2023-04-07T22:49:58.233Z,7.72
2023-04-07T22:52:24.720Z,6.85
2023-04-07T22:54:51.268Z,7.15
2023-04-07T22:57:17.731Z,7.35
2023-04-07T22:59:44.198Z,7.38
2023-04-07T23:02:10.737Z,7.53
2023-04-07T23:04:37.299Z,6.97
2023-04-07T23:07:03.748Z,7.15
2023-04-07T23:09:30.535Z,7.00
2023-04-07T23:11:57.017Z,7.53
2023-04-07T23:14:23.544Z,7.20
2023-04-07T23:16:51.051Z,8.23
2023-04-07T23:19:17.701Z,7.75
2023-04-07T23:21:44.211Z,7.85
2023-04-07T23:24:10.772Z,9.20
2023-04-07T23:26:37.361Z,9.32
2023-04-07T23:29:03.875Z,9.57
2023-04-07T23:31:31.082Z,11.05
2023-04-07T23:33:58.613Z,11.82
2023-04-07T23:36:25.125Z,13.30
2023-04-07T23:38:51.905Z,12.05
2023-04-07T23:41:18.492Z,12.30
2023-04-07T23:43:45.576Z,11.93
2023-04-07T23:46:12.155Z,12.82
2023-04-07T23:48:39.280Z,12.27
2023-04-07T23:51:06.018Z,10.65
2023-04-07T23:53:32.513Z,11.13
2023-04-07T23:55:58.977Z,9.48
2023-04-07T23:58:25.546Z,9.52
